Green Bay, WI

4:19 AM CST on February 12, 2016 (GMT -0600)
Parkwood Estates | | Change Station
CLOSE
Current Station
Personal Weather Station
Location: Green Bay, WI
Elevation: 709 ft
Nearby Weather Stations
Active Advisory: Wind Chill Advisory

Elev 709 ft 44.51 °N, 88.11 °W | Updated 2 minutes ago

Overcast
Overcast
13.5 °F
Feels Like 14 °F
N
1.7
Wind Variable Wind from SSE

Today
High -- | Low -- °F
--% Chance of Precip.
Yesterday
High -- | Low -- °F
Precip. -- in
Pressure 30.12 in
Visibility 10.0 miles
Clouds Overcast 5000 ft
Windchill 14 °F
Dew Point 3 °F
Humidity 62%
Rainfall 0.00 in
Snow Depth Not available.
6:57 AM 5:16 PM
Waxing Crescent, 19% visible
METAR KGRB 120953Z AUTO 28010KT 10SM OVC050 M09/M16 A3008 RMK AO2 SLP200 T10941161 $
Pressure 30.12 in
Visibility 10.0 miles
Clouds Overcast 5000 ft
Windchill 14 °F
Dew Point 3 °F
Humidity 62%
Rainfall 0.00 in
Snow Depth Not available.
6:57 AM 5:16 PM
Waxing Crescent, 19% visible
METAR KGRB 120953Z AUTO 28010KT 10SM OVC050 M09/M16 A3008 RMK AO2 SLP200 T10941161 $

10-Day Weather Forecast

Almanac

Astronomy

Feb. 12, 2016 Rise Set
Actual Time
Civil Twilight
Nautical Twilight
Astronomical Twilight
Moon
Length of Visible Light
Length of Day
Tomorrow will be .
, % of the Moon is Illuminated

Today's Extremes

State Highs State Lows

Community

WunderPhotos

Upload Photos

1,892,287 photos uploaded!

WunderBlog® & News

Nearby

Air Quality

  Air Quality AQ Index Pollutant
Not available.

Snow Depth

Station Depth Elevation

Earthquake Activity

City Distance Mag. Time & Date
Minimum magnitude displayed is 2.5.

Coastal Water Temperatures

Place Temperature

Stations

Nearby Weather Stations

Station Location Temp. Windchill Dew Point Humidity Wind Precip. Elev Updated Type
                   

Watches & Warnings

Wind Chill Advisory
Issued: 3:11 AM CST Feb. 12, 2016 – National Weather Service

... Wind Chill Advisory in effect from midnight tonight to 9 am
CST Saturday...

The National Weather Service in Green Bay has issued a Wind Chill
Advisory... which is in effect from midnight tonight to 9 am CST
Saturday.

* Wind chills will drop to 20 to 25 below zero tonight and early
Saturday.

* The cold wind chills will cause frostbite on exposed skin in as
little as 20 to 30 minutes.

Precautionary/preparedness actions...

A Wind Chill Advisory means that cold air and the wind will
combine to generate low wind chills. Frost bite and hypothermia
can occur if precautions are not taken. Make sure you wear a hat
and gloves.

Tsk